Shatki, Russia
Current Conditions -  °F | °C
As of 8:30 AM on Friday 28 Nov 2014 (Local Time) from UWGG Reporting Station
Light Snow Light Snow  
Wind Chill: 19°   Ceiling: 800
Heat Index: 19°   Visibility: 6mi
Dew Point: 18°   Wind: 2mph
Humidity: 93%   Direction: NA
Pressure: 30.62"   Gusts: NA
Location:  55.19°N, 44.13°E
Report Text: UWGG 280530Z VRB01MPS 9000 -SG OVC008 M07/M08 Q1037 NOSIG36190042 RMK QFE771
Loading
Personal Weather Stations






























Interactive Weather Map New forecast layout! Learn more

10-Day Weather Forecast

Advertisements
Track Severe Weather on mobile